createdAt,value
2023-09-02T00:00:30.385Z,100485.69
2023-09-02T00:03:32.323Z,100488.66
2023-09-02T00:06:34.078Z,100494.41
2023-09-02T00:09:35.798Z,100494.91
2023-09-02T00:12:38.938Z,100493.94
2023-09-02T00:15:42.276Z,100495.41
2023-09-02T00:18:44.734Z,100501.56
2023-09-02T00:21:46.388Z,100491.53
2023-09-02T00:24:48.076Z,100489.91
2023-09-02T00:27:51.129Z,100491.53
2023-09-02T00:30:54.535Z,100484.16
2023-09-02T00:33:56.214Z,100489.91
2023-09-02T00:36:57.971Z,100488.84
2023-09-02T00:39:59.694Z,100489.75
2023-09-02T00:43:04.918Z,100491.13
2023-09-02T00:46:07.946Z,100491.25
2023-09-02T00:49:09.652Z,100496.72
2023-09-02T00:52:11.345Z,100494.69
2023-09-02T00:55:14.259Z,100491.03
2023-09-02T00:58:17.593Z,100485.34
2023-09-02T01:01:19.994Z,100487.63
2023-09-02T01:04:22.655Z,100487.38
2023-09-02T01:07:25.497Z,100495.31
2023-09-02T01:10:28.204Z,100501.16
2023-09-02T01:13:31.612Z,100499.84
2023-09-02T01:16:33.644Z,100501.06
2023-09-02T01:19:37.195Z,100505.00
2023-09-02T01:22:59.187Z,100502.94
2023-09-02T01:26:15.141Z,100506.41
2023-09-02T01:29:21.232Z,100507.03
2023-09-02T01:32:25.598Z,100512.81
2023-09-02T01:35:30.438Z,100511.09
2023-09-02T01:38:33.568Z,100509.22
2023-09-02T01:41:35.922Z,100521.34
2023-09-02T01:44:40.753Z,100516.22
2023-09-02T01:47:43.041Z,100524.91
2023-09-02T01:50:45.599Z,100521.31
2023-09-02T01:53:47.562Z,100512.81
2023-09-02T01:56:50.295Z,100528.53
2023-09-02T01:59:53.795Z,100528.38
2023-09-02T02:02:56.144Z,100526.78
2023-09-02T02:06:01.005Z,100528.63
2023-09-02T02:09:05.446Z,100524.00
2023-09-02T02:12:09.233Z,100532.19
2023-09-02T02:15:13.119Z,100526.41
2023-09-02T02:18:15.052Z,100525.34
2023-09-02T02:21:17.301Z,100532.47
2023-09-02T02:24:19.046Z,100524.31
2023-09-02T02:27:21.393Z,100523.13
2023-09-02T02:30:24.485Z,100516.13
2023-09-02T02:33:26.486Z,100519.00
2023-09-02T02:36:28.794Z,100516.88
2023-09-02T02:39:30.870Z,100518.59
2023-09-02T02:42:33.553Z,100516.69
2023-09-02T02:45:36.639Z,100527.00
2023-09-02T02:48:38.420Z,100519.81
2023-09-02T02:51:40.107Z,100523.00
2023-09-02T02:54:41.873Z,100518.91
2023-09-02T02:57:44.274Z,100519.88
2023-09-02T03:00:48.184Z,100521.41
2023-09-02T03:03:52.965Z,100525.03
2023-09-02T03:06:54.679Z,100524.31
2023-09-02T03:09:56.528Z,100534.63
2023-09-02T03:12:58.325Z,100532.44
2023-09-02T03:16:02.286Z,100538.78
2023-09-02T03:19:04.231Z,100536.88
2023-09-02T03:22:07.573Z,100533.69
2023-09-02T03:25:09.735Z,100542.69
2023-09-02T03:28:13.976Z,100538.06
2023-09-02T03:31:17.142Z,100540.38
2023-09-02T03:34:19.609Z,100547.34
2023-09-02T03:37:21.670Z,100558.31
2023-09-02T03:40:23.426Z,100555.19
2023-09-02T03:43:26.438Z,100553.69
2023-09-02T03:46:33.468Z,100558.97
2023-09-02T03:49:36.024Z,100553.16
2023-09-02T03:52:37.724Z,100560.06
2023-09-02T03:55:39.523Z,100563.19
2023-09-02T03:58:41.285Z,100559.16
2023-09-02T04:01:46.038Z,100566.91
2023-09-02T04:04:47.864Z,100567.19
2023-09-02T04:07:49.762Z,100568.34
2023-09-02T04:10:52.934Z,100565.72
2023-09-02T04:13:54.830Z,100568.34
2023-09-02T04:17:00.128Z,100569.03
2023-09-02T04:20:02.355Z,100577.06
2023-09-02T04:23:05.799Z,100574.47
2023-09-02T04:26:07.568Z,100568.66
2023-09-02T04:29:09.333Z,100576.47
2023-09-02T04:32:12.438Z,100575.75
2023-09-02T04:35:15.586Z,100583.00
2023-09-02T04:38:17.406Z,100577.06
2023-09-02T04:41:23.328Z,100569.78
2023-09-02T04:44:26.110Z,100579.81
2023-09-02T04:47:29.140Z,100588.16
2023-09-02T04:50:31.719Z,100588.28
2023-09-02T04:53:33.520Z,100591.56
2023-09-02T04:56:35.295Z,100584.13
2023-09-02T04:59:37.072Z,100592.19
2023-09-02T05:02:43.510Z,100585.38
2023-09-02T05:05:45.379Z,100593.66
2023-09-02T05:08:55.111Z,100593.31
2023-09-02T05:11:58.204Z,100595.69
2023-09-02T05:15:01.147Z,100586.78
2023-09-02T05:18:05.412Z,100591.50
2023-09-02T05:21:07.236Z,100591.63
2023-09-02T05:24:09.645Z,100590.56
2023-09-02T05:27:11.380Z,100586.16
2023-09-02T05:30:13.843Z,100588.31
2023-09-02T05:33:17.607Z,100582.59
2023-09-02T05:36:19.482Z,100586.66
2023-09-02T05:39:21.150Z,100591.75
2023-09-02T05:42:22.834Z,100603.09
2023-09-02T05:45:24.553Z,100603.00
2023-09-02T05:48:27.520Z,100602.72
2023-09-02T05:51:29.233Z,100604.84
2023-09-02T05:54:30.927Z,100605.84
2023-09-02T05:57:33.344Z,100602.69
2023-09-02T06:00:37.320Z,100599.34
2023-09-02T06:03:41.953Z,100612.16
2023-09-02T06:06:43.931Z,100611.34
2023-09-02T06:09:45.633Z,100606.91
2023-09-02T06:12:47.305Z,100611.09
2023-09-02T06:15:49.169Z,100614.91
2023-09-02T06:18:52.282Z,100615.28
2023-09-02T06:21:53.978Z,100618.03
2023-09-02T06:24:56.186Z,100613.44
2023-09-02T06:27:58.010Z,100617.84
2023-09-02T06:30:59.871Z,100620.00
2023-09-02T06:34:02.968Z,100621.69
2023-09-02T06:37:05.080Z,100620.53
2023-09-02T06:40:07.815Z,100627.72
2023-09-02T06:43:09.628Z,100639.41
2023-09-02T06:46:13.251Z,100636.31
2023-09-02T06:49:16.358Z,100644.72
2023-09-02T06:52:18.238Z,100655.69
2023-09-02T06:55:20.032Z,100646.69
2023-09-02T06:58:21.831Z,100653.84
2023-09-02T07:01:23.924Z,100650.97
2023-09-02T07:04:27.304Z,100647.03
2023-09-02T07:07:29.889Z,100649.78
2023-09-02T07:10:31.554Z,100647.72
2023-09-02T07:13:33.301Z,100650.53
2023-09-02T07:16:35.259Z,100657.06
2023-09-02T07:19:38.423Z,100662.94
2023-09-02T07:22:40.235Z,100670.44
2023-09-02T07:25:41.908Z,100670.22
2023-09-02T07:28:43.973Z,100675.56
2023-09-02T07:31:45.717Z,100672.53
2023-09-02T07:34:48.822Z,100687.13
2023-09-02T07:37:50.549Z,100680.88
2023-09-02T07:40:52.279Z,100683.31
2023-09-02T07:43:54.052Z,100687.34
2023-09-02T07:46:55.922Z,100680.16
2023-09-02T07:49:58.981Z,100690.03
2023-09-02T07:53:00.694Z,100693.03
2023-09-02T07:56:02.854Z,100692.56
2023-09-02T07:59:06.803Z,100694.53
2023-09-02T08:02:08.543Z,100693.34
2023-09-02T08:05:11.608Z,100690.41
2023-09-02T08:08:14.859Z,100702.50
2023-09-02T08:11:19.746Z,100696.38
2023-09-02T08:14:21.450Z,100694.03
2023-09-02T08:17:23.205Z,100694.78
2023-09-02T08:20:26.860Z,100686.50
2023-09-02T08:23:28.613Z,100685.81
2023-09-02T08:26:30.522Z,100691.25
2023-09-02T08:29:33.654Z,100694.47
2023-09-02T08:32:35.531Z,100692.75
2023-09-02T08:35:38.953Z,100697.34
2023-09-02T08:38:40.674Z,100696.66
2023-09-02T08:41:45.498Z,100698.50
2023-09-02T08:44:48.284Z,100711.63
2023-09-02T08:47:55.271Z,100706.31
2023-09-02T08:50:58.598Z,100705.50
2023-09-02T08:54:01.596Z,100711.53
2023-09-02T08:57:03.935Z,100702.31
2023-09-02T09:00:07.851Z,100700.28
2023-09-02T09:03:12.989Z,100696.88
2023-09-02T09:06:19.914Z,100702.59
2023-09-02T09:09:23.844Z,100713.44
2023-09-02T09:12:26.790Z,100709.66
2023-09-02T09:15:29.462Z,100710.56
2023-09-02T09:18:31.219Z,100716.50
2023-09-02T09:21:34.310Z,100718.75
2023-09-02T09:24:38.761Z,100722.09
2023-09-02T09:27:40.495Z,100725.00
2023-09-02T09:30:42.461Z,100727.44
2023-09-02T09:33:49.988Z,100726.53
2023-09-02T09:36:58.624Z,100727.06
2023-09-02T09:40:02.618Z,100723.88
2023-09-02T09:43:17.094Z,100728.81
2023-09-02T09:46:19.195Z,100714.44
2023-09-02T09:49:22.638Z,100725.31
2023-09-02T09:52:25.634Z,100724.34
2023-09-02T09:55:27.644Z,100722.38
2023-09-02T09:58:29.555Z,100716.38
2023-09-02T10:01:31.394Z,100712.16
2023-09-02T10:04:33.626Z,100700.88
2023-09-02T10:07:36.906Z,100691.94
2023-09-02T10:10:39.872Z,100702.72
2023-09-02T10:13:42.644Z,100702.34
2023-09-02T10:16:46.115Z,100705.19
2023-09-02T10:19:48.464Z,100712.75
2023-09-02T10:22:53.013Z,100715.88
2023-09-02T10:26:01.634Z,100720.78
2023-09-02T10:29:07.951Z,100718.19
2023-09-02T10:32:14.802Z,100709.47
2023-09-02T10:35:20.256Z,100710.56
2023-09-02T10:38:25.259Z,100720.19
2023-09-02T10:41:28.908Z,100705.63
2023-09-02T10:44:31.284Z,100699.69
2023-09-02T10:47:33.171Z,100697.44
2023-09-02T10:50:35.442Z,100695.16
2023-09-02T10:53:58.900Z,100698.59
2023-09-02T10:57:13.834Z,100704.44
2023-09-02T11:00:17.747Z,100687.31
2023-09-02T11:03:42.466Z,100692.59
2023-09-02T11:07:21.742Z,100707.41
2023-09-02T11:10:55.379Z,100698.69
2023-09-02T11:14:19.084Z,100702.25
2023-09-02T11:17:28.644Z,100699.13
2023-09-02T11:20:49.327Z,100706.41
2023-09-02T11:23:51.205Z,100697.91
2023-09-02T11:26:55.710Z,100695.06
2023-09-02T11:30:09.331Z,100696.22
2023-09-02T11:33:19.516Z,100695.81
2023-09-02T11:36:21.985Z,100693.34
2023-09-02T11:39:26.303Z,100698.34
2023-09-02T11:42:31.263Z,100703.00
2023-09-02T11:45:35.666Z,100699.06
2023-09-02T11:48:37.401Z,100691.66
2023-09-02T11:51:39.359Z,100697.97
2023-09-02T11:54:47.243Z,100689.91
2023-09-02T11:57:50.940Z,100694.09
2023-09-02T12:00:52.878Z,100700.50
2023-09-02T12:03:56.686Z,100704.69
2023-09-02T12:06:58.546Z,100705.63
2023-09-02T12:10:05.362Z,100707.19
2023-09-02T12:13:10.010Z,100706.84
2023-09-02T12:16:17.135Z,100710.34
2023-09-02T12:19:20.952Z,100710.59
2023-09-02T12:22:23.372Z,100718.34
2023-09-02T12:25:25.833Z,100711.38
2023-09-02T12:28:30.536Z,100722.47
2023-09-02T12:31:32.390Z,100714.94
2023-09-02T12:34:40.009Z,100720.75
2023-09-02T12:37:41.791Z,100713.22
2023-09-02T12:40:53.120Z,100724.22
2023-09-02T12:43:56.282Z,100719.25
2023-09-02T12:46:57.998Z,100716.91
2023-09-02T12:50:04.663Z,100725.72
2023-09-02T12:53:06.411Z,100722.44
2023-09-02T12:56:10.658Z,100730.41
2023-09-02T12:59:13.915Z,100728.59
2023-09-02T13:02:15.813Z,100728.56
2023-09-02T13:05:17.805Z,100729.03
2023-09-02T13:08:19.623Z,100731.00
2023-09-02T13:11:23.361Z,100717.72
2023-09-02T13:14:28.305Z,100724.25
2023-09-02T13:17:30.108Z,100725.13
2023-09-02T13:20:36.772Z,100729.94
2023-09-02T13:23:39.079Z,100736.81
2023-09-02T13:26:44.433Z,100730.97
2023-09-02T13:29:48.427Z,100738.03
2023-09-02T13:32:50.117Z,100744.66
2023-09-02T13:35:51.954Z,100739.09
2023-09-02T13:38:53.661Z,100736.00
2023-09-02T13:41:55.433Z,100732.88
2023-09-02T13:45:08.289Z,100728.66
2023-09-02T13:48:10.267Z,100734.91
2023-09-02T13:51:21.799Z,100733.72
2023-09-02T13:54:26.267Z,100737.34
2023-09-02T13:57:28.398Z,100740.25
2023-09-02T14:00:38.908Z,100745.22
2023-09-02T14:03:42.818Z,100740.94
2023-09-02T14:06:44.586Z,100743.00
2023-09-02T14:09:46.750Z,100746.97
2023-09-02T14:12:48.729Z,100739.94
2023-09-02T14:15:52.128Z,100750.28
2023-09-02T14:19:01.042Z,100744.84
2023-09-02T14:22:02.934Z,100747.88
2023-09-02T14:25:05.689Z,100758.47
2023-09-02T14:28:07.436Z,100754.81
2023-09-02T14:31:10.698Z,100745.16
2023-09-02T14:34:12.472Z,100741.97
2023-09-02T14:37:14.283Z,100744.63
2023-09-02T14:40:16.057Z,100742.59
2023-09-02T14:43:18.461Z,100736.84
2023-09-02T14:46:24.501Z,100741.00
2023-09-02T14:49:27.513Z,100739.16
2023-09-02T14:52:32.778Z,100734.91
2023-09-02T14:55:35.877Z,100725.56
2023-09-02T14:58:37.730Z,100731.59
2023-09-02T15:01:43.483Z,100736.19
2023-09-02T15:04:45.281Z,100736.13
2023-09-02T15:07:47.559Z,100741.63
2023-09-02T15:10:49.408Z,100747.25
2023-09-02T15:13:53.328Z,100744.34
2023-09-02T15:17:00.190Z,100745.97
2023-09-02T15:20:02.249Z,100751.69
2023-09-02T15:23:04.807Z,100748.03
2023-09-02T15:26:06.863Z,100754.91
2023-09-02T15:29:14.012Z,100754.31
2023-09-02T15:32:17.147Z,100750.00
2023-09-02T15:35:18.828Z,100748.72
2023-09-02T15:38:20.698Z,100745.94
2023-09-02T15:41:22.402Z,100754.22
2023-09-02T15:44:24.148Z,100750.56
2023-09-02T15:47:27.201Z,100754.09
2023-09-02T15:50:30.745Z,100756.25
2023-09-02T15:53:33.637Z,100756.13
2023-09-02T15:56:35.375Z,100766.44
2023-09-02T15:59:37.098Z,100763.28
2023-09-02T16:02:40.386Z,100756.13
2023-09-02T16:05:42.174Z,100760.22
2023-09-02T16:08:43.905Z,100752.53
2023-09-02T16:11:45.617Z,100753.84
2023-09-02T16:14:47.330Z,100751.00
2023-09-02T16:17:50.417Z,100758.84
2023-09-02T16:20:53.654Z,100765.97
2023-09-02T16:23:57.175Z,100765.91
2023-09-02T16:26:58.918Z,100760.22
2023-09-02T16:30:03.076Z,100768.66
2023-09-02T16:33:06.524Z,100763.75
2023-09-02T16:36:10.086Z,100757.59
2023-09-02T16:39:12.860Z,100755.31
2023-09-02T16:42:14.592Z,100753.50
2023-09-02T16:45:20.965Z,100756.63
2023-09-02T16:48:25.150Z,100754.75
2023-09-02T16:51:27.009Z,100763.25
2023-09-02T16:54:32.177Z,100758.38
2023-09-02T16:57:39.349Z,100753.00
2023-09-02T17:00:41.048Z,100759.84
2023-09-02T17:03:50.226Z,100753.81
2023-09-02T17:06:51.942Z,100754.28
2023-09-02T17:09:53.644Z,100755.84
2023-09-02T17:12:55.884Z,100757.81
2023-09-02T17:15:57.764Z,100748.16
2023-09-02T17:19:01.264Z,100749.75
2023-09-02T17:22:04.294Z,100751.09
2023-09-02T17:25:06.545Z,100756.56
2023-09-02T17:28:10.599Z,100754.66
2023-09-02T17:31:12.216Z,100750.47
2023-09-02T17:34:15.369Z,100755.72
2023-09-02T17:37:17.070Z,100739.38
2023-09-02T17:40:18.824Z,100733.41
2023-09-02T17:43:20.599Z,100733.19
2023-09-02T17:46:22.923Z,100730.31
2023-09-02T17:49:26.034Z,100743.81
2023-09-02T17:52:27.725Z,100747.91
2023-09-02T17:55:29.536Z,100748.63
2023-09-02T17:58:31.322Z,100758.81
2023-09-02T18:01:33.062Z,100756.00
2023-09-02T18:04:36.188Z,100759.41
2023-09-02T18:07:38.695Z,100762.75
2023-09-02T18:13:42.231Z,100761.47
2023-09-02T18:16:43.935Z,100768.25
2023-09-02T18:19:48.384Z,100771.91
2023-09-02T18:22:50.162Z,100774.81
2023-09-02T18:25:51.876Z,100784.44
2023-09-02T18:28:53.699Z,100789.78
2023-09-02T18:31:55.601Z,100797.56
2023-09-02T18:34:58.750Z,100800.22
2023-09-02T18:38:00.504Z,100798.28
2023-09-02T18:41:02.359Z,100802.34
2023-09-02T18:44:04.323Z,100807.84
2023-09-02T18:47:06.188Z,100818.50
2023-09-02T18:50:09.774Z,100817.72
2023-09-02T18:53:11.552Z,100829.00
2023-09-02T18:56:13.427Z,100829.28
2023-09-02T18:59:15.215Z,100837.78
2023-09-02T19:02:17.215Z,100846.88
2023-09-02T19:05:20.264Z,100847.13
2023-09-02T19:08:22.182Z,100848.78
2023-09-02T19:11:24.191Z,100847.91
2023-09-02T19:14:26.043Z,100852.25
2023-09-02T19:17:27.923Z,100857.78
2023-09-02T19:20:31.080Z,100871.50
2023-09-02T19:23:33.428Z,100878.28
2023-09-02T19:26:36.283Z,100890.59
2023-09-02T19:29:38.111Z,100882.78
2023-09-02T19:32:39.997Z,100876.91
2023-09-02T19:35:43.228Z,100901.56
2023-09-02T19:38:44.896Z,100912.22
2023-09-02T19:41:48.718Z,100912.31
2023-09-02T19:44:50.617Z,100906.69
2023-09-02T19:47:52.403Z,100915.22
2023-09-02T19:50:55.474Z,100922.88
2023-09-02T19:53:57.240Z,100912.59
2023-09-02T19:56:59.080Z,100922.66
2023-09-02T20:00:01.344Z,100917.56
2023-09-02T20:03:16.781Z,100919.94
2023-09-02T20:06:20.048Z,100917.00
2023-09-02T20:09:21.806Z,100911.19
2023-09-02T20:12:23.535Z,100913.22
2023-09-02T20:15:25.418Z,100906.88
2023-09-02T20:18:27.320Z,100905.22
2023-09-02T20:21:30.726Z,100913.88
2023-09-02T20:24:35.360Z,100906.97
2023-09-02T20:27:38.058Z,100920.19
2023-09-02T20:30:39.889Z,100917.66
2023-09-02T20:33:41.695Z,100917.25
2023-09-02T20:36:45.076Z,100917.41
2023-09-02T20:39:46.881Z,100927.56
2023-09-02T20:42:48.909Z,100926.94
2023-09-02T20:45:50.664Z,100926.97
2023-09-02T20:48:52.775Z,100930.97
2023-09-02T20:51:55.977Z,100932.66
2023-09-02T20:54:57.699Z,100937.63
2023-09-02T20:57:59.645Z,100935.16
2023-09-02T21:01:04.334Z,100941.97
2023-09-02T21:04:06.423Z,100949.56
2023-09-02T21:07:09.899Z,100945.31
2023-09-02T21:10:11.774Z,100948.22
2023-09-02T21:13:13.710Z,100947.97
2023-09-02T21:16:17.968Z,100950.56
2023-09-02T21:19:19.597Z,100950.41
2023-09-02T21:22:22.627Z,100954.38
2023-09-02T21:25:24.472Z,100959.78
2023-09-02T21:28:26.233Z,100959.63
2023-09-02T21:31:27.958Z,100956.25
2023-09-02T21:34:29.692Z,100950.38
2023-09-02T21:37:32.795Z,100956.63
2023-09-02T21:40:34.584Z,100956.84
2023-09-02T21:43:38.651Z,100958.84
2023-09-02T21:46:42.193Z,100963.88
2023-09-02T21:49:46.629Z,100962.91
2023-09-02T21:52:49.507Z,100955.69
2023-09-02T21:55:51.217Z,100963.38
2023-09-02T21:58:52.878Z,100967.91
2023-09-02T22:01:54.731Z,100984.72
2023-09-02T22:04:56.758Z,100981.56
2023-09-02T22:08:00.053Z,100976.06
2023-09-02T22:11:02.087Z,100990.00
2023-09-02T22:14:03.829Z,100983.91
2023-09-02T22:17:06.325Z,100975.94
2023-09-02T22:20:08.832Z,100979.50
2023-09-02T22:23:11.931Z,100982.50
2023-09-02T22:26:13.661Z,100993.97
2023-09-02T22:29:15.335Z,100979.28
2023-09-02T22:32:17.002Z,100981.47
2023-09-02T22:35:20.248Z,100979.28
2023-09-02T22:38:34.166Z,100988.56
2023-09-02T22:41:51.019Z,100984.25
2023-09-02T22:44:52.770Z,100983.19
2023-09-02T22:47:58.607Z,100972.13
2023-09-02T22:51:02.769Z,100980.66
2023-09-02T22:54:05.909Z,100979.66
2023-09-02T22:57:07.656Z,100978.16
2023-09-02T23:00:10.723Z,100977.34
2023-09-02T23:03:12.421Z,100979.28
2023-09-02T23:06:14.563Z,100976.84
2023-09-02T23:09:17.707Z,100973.75
2023-09-02T23:12:21.411Z,100981.22
2023-09-02T23:15:24.174Z,100979.13
2023-09-02T23:18:25.981Z,100985.72
2023-09-02T23:21:27.684Z,100986.47
2023-09-02T23:24:30.686Z,100986.88
2023-09-02T23:27:32.407Z,100990.94
2023-09-02T23:30:34.134Z,100990.03
2023-09-02T23:33:36.158Z,100995.09
2023-09-02T23:36:37.973Z,100996.13
2023-09-02T23:39:41.015Z,100990.81
2023-09-02T23:42:43.551Z,100992.44
2023-09-02T23:45:45.349Z,100996.81
2023-09-02T23:48:47.027Z,100997.50
2023-09-02T23:51:48.885Z,100990.59
2023-09-02T23:54:51.987Z,100995.69
2023-09-02T23:57:55.868Z,100995.19
